sensor_id;sensor_type;location;lat;lon;timestamp;P1;durP1;ratioP1;P2;durP2;ratioP2
59830;SDS011;45711;50.108;13.712;2023-01-01T00:02:06;7.57;;;3.97;;
59830;SDS011;45711;50.108;13.712;2023-01-01T00:04:32;6.93;;;4.10;;
59830;SDS011;45711;50.108;13.712;2023-01-01T00:06:58;8.90;;;3.60;;
59830;SDS011;45711;50.108;13.712;2023-01-01T00:09:24;5.30;;;3.35;;
59830;SDS011;45711;50.108;13.712;2023-01-01T00:14:34;4.90;;;2.92;;
59830;SDS011;45711;50.108;13.712;2023-01-01T00:17:01;7.50;;;2.90;;
59830;SDS011;45711;50.108;13.712;2023-01-01T00:19:26;5.70;;;3.17;;
59830;SDS011;45711;50.108;13.712;2023-01-01T00:21:52;5.70;;;2.85;;
59830;SDS011;45711;50.108;13.712;2023-01-01T00:24:18;7.28;;;3.10;;
59830;SDS011;45711;50.108;13.712;2023-01-01T00:26:43;5.72;;;2.92;;
59830;SDS011;45711;50.108;13.712;2023-01-01T00:29:09;8.35;;;3.13;;
59830;SDS011;45711;50.108;13.712;2023-01-01T00:31:35;5.13;;;3.30;;
59830;SDS011;45711;50.108;13.712;2023-01-01T00:34:02;6.32;;;3.00;;
59830;SDS011;45711;50.108;13.712;2023-01-01T00:36:28;6.90;;;3.75;;
59830;SDS011;45711;50.108;13.712;2023-01-01T00:38:54;7.50;;;3.70;;
59830;SDS011;45711;50.108;13.712;2023-01-01T00:41:20;6.85;;;2.92;;
59830;SDS011;45711;50.108;13.712;2023-01-01T00:43:46;5.47;;;2.67;;
59830;SDS011;45711;50.108;13.712;2023-01-01T00:46:12;5.60;;;3.30;;
59830;SDS011;45711;50.108;13.712;2023-01-01T00:48:38;6.28;;;3.10;;
59830;SDS011;45711;50.108;13.712;2023-01-01T00:51:05;7.13;;;3.05;;
59830;SDS011;45711;50.108;13.712;2023-01-01T00:53:31;5.25;;;3.58;;
59830;SDS011;45711;50.108;13.712;2023-01-01T00:55:57;5.95;;;2.72;;
59830;SDS011;45711;50.108;13.712;2023-01-01T00:58:23;4.45;;;2.90;;
59830;SDS011;45711;50.108;13.712;2023-01-01T01:00:49;3.92;;;2.60;;
59830;SDS011;45711;50.108;13.712;2023-01-01T01:03:16;3.55;;;2.60;;
59830;SDS011;45711;50.108;13.712;2023-01-01T01:05:54;6.40;;;2.80;;
59830;SDS011;45711;50.108;13.712;2023-01-01T01:08:21;7.38;;;3.53;;
59830;SDS011;45711;50.108;13.712;2023-01-01T01:10:47;4.30;;;2.35;;
59830;SDS011;45711;50.108;13.712;2023-01-01T01:13:13;5.20;;;2.83;;
59830;SDS011;45711;50.108;13.712;2023-01-01T01:15:40;4.28;;;2.10;;
59830;SDS011;45711;50.108;13.712;2023-01-01T01:18:05;4.00;;;2.22;;
59830;SDS011;45711;50.108;13.712;2023-01-01T01:20:31;3.63;;;2.33;;
59830;SDS011;45711;50.108;13.712;2023-01-01T01:22:56;6.55;;;2.67;;
59830;SDS011;45711;50.108;13.712;2023-01-01T01:25:23;4.47;;;2.40;;
59830;SDS011;45711;50.108;13.712;2023-01-01T01:27:49;4.13;;;2.63;;
59830;SDS011;45711;50.108;13.712;2023-01-01T01:30:14;4.65;;;3.10;;
59830;SDS011;45711;50.108;13.712;2023-01-01T01:32:40;5.68;;;2.70;;
59830;SDS011;45711;50.108;13.712;2023-01-01T01:35:06;4.18;;;2.53;;
59830;SDS011;45711;50.108;13.712;2023-01-01T01:37:32;4.20;;;2.38;;
59830;SDS011;45711;50.108;13.712;2023-01-01T01:39:57;3.70;;;2.28;;
59830;SDS011;45711;50.108;13.712;2023-01-01T01:42:24;4.25;;;2.70;;
59830;SDS011;45711;50.108;13.712;2023-01-01T01:44:52;5.70;;;3.05;;
59830;SDS011;45711;50.108;13.712;2023-01-01T01:47:20;5.40;;;2.28;;
59830;SDS011;45711;50.108;13.712;2023-01-01T01:49:50;6.60;;;2.95;;
59830;SDS011;45711;50.108;13.712;2023-01-01T01:52:20;3.08;;;2.45;;
59830;SDS011;45711;50.108;13.712;2023-01-01T01:54:46;3.83;;;2.30;;
59830;SDS011;45711;50.108;13.712;2023-01-01T01:57:12;3.33;;;2.30;;
59830;SDS011;45711;50.108;13.712;2023-01-01T01:59:40;4.38;;;2.58;;
59830;SDS011;45711;50.108;13.712;2023-01-01T02:02:11;4.50;;;2.35;;
59830;SDS011;45711;50.108;13.712;2023-01-01T02:04:42;2.45;;;1.90;;
59830;SDS011;45711;50.108;13.712;2023-01-01T02:07:08;4.72;;;2.47;;
59830;SDS011;45711;50.108;13.712;2023-01-01T02:09:36;5.45;;;2.83;;
59830;SDS011;45711;50.108;13.712;2023-01-01T02:12:02;7.13;;;2.25;;
59830;SDS011;45711;50.108;13.712;2023-01-01T02:14:27;5.30;;;2.20;;
59830;SDS011;45711;50.108;13.712;2023-01-01T02:16:55;4.00;;;2.20;;
59830;SDS011;45711;50.108;13.712;2023-01-01T02:19:27;4.05;;;2.58;;
59830;SDS011;45711;50.108;13.712;2023-01-01T02:22:05;3.45;;;2.17;;
59830;SDS011;45711;50.108;13.712;2023-01-01T02:24:48;4.45;;;2.38;;
59830;SDS011;45711;50.108;13.712;2023-01-01T02:27:24;5.28;;;2.70;;
59830;SDS011;45711;50.108;13.712;2023-01-01T02:29:59;4.25;;;1.92;;
59830;SDS011;45711;50.108;13.712;2023-01-01T02:32:30;4.82;;;2.22;;
59830;SDS011;45711;50.108;13.712;2023-01-01T02:35:02;4.10;;;2.03;;
59830;SDS011;45711;50.108;13.712;2023-01-01T02:37:52;5.43;;;2.63;;
59830;SDS011;45711;50.108;13.712;2023-01-01T02:40:21;3.80;;;2.38;;
59830;SDS011;45711;50.108;13.712;2023-01-01T02:42:48;4.65;;;2.28;;
59830;SDS011;45711;50.108;13.712;2023-01-01T02:45:17;4.80;;;2.42;;
59830;SDS011;45711;50.108;13.712;2023-01-01T02:47:43;4.60;;;2.33;;
59830;SDS011;45711;50.108;13.712;2023-01-01T02:50:10;3.83;;;2.38;;
59830;SDS011;45711;50.108;13.712;2023-01-01T02:52:50;4.80;;;2.50;;
59830;SDS011;45711;50.108;13.712;2023-01-01T02:55:34;5.97;;;2.38;;
59830;SDS011;45711;50.108;13.712;2023-01-01T02:58:09;2.88;;;1.85;;
59830;SDS011;45711;50.108;13.712;2023-01-01T03:01:01;5.65;;;2.25;;
59830;SDS011;45711;50.108;13.712;2023-01-01T03:03:35;3.90;;;2.40;;
59830;SDS011;45711;50.108;13.712;2023-01-01T03:06:07;2.72;;;2.00;;
59830;SDS011;45711;50.108;13.712;2023-01-01T03:08:51;3.83;;;2.20;;
59830;SDS011;45711;50.108;13.712;2023-01-01T03:11:22;4.18;;;2.42;;
59830;SDS011;45711;50.108;13.712;2023-01-01T03:13:57;3.83;;;2.03;;
59830;SDS011;45711;50.108;13.712;2023-01-01T03:16:33;2.85;;;2.03;;
59830;SDS011;45711;50.108;13.712;2023-01-01T03:19:04;2.42;;;2.00;;
59830;SDS011;45711;50.108;13.712;2023-01-01T03:21:35;4.60;;;2.50;;
59830;SDS011;45711;50.108;13.712;2023-01-01T03:24:04;6.00;;;2.55;;
59830;SDS011;45711;50.108;13.712;2023-01-01T03:26:32;4.68;;;2.33;;
59830;SDS011;45711;50.108;13.712;2023-01-01T03:28:59;6.50;;;2.60;;
59830;SDS011;45711;50.108;13.712;2023-01-01T03:31:27;3.03;;;1.73;;
59830;SDS011;45711;50.108;13.712;2023-01-01T03:33:55;4.85;;;2.40;;
59830;SDS011;45711;50.108;13.712;2023-01-01T03:36:26;4.20;;;2.30;;
59830;SDS011;45711;50.108;13.712;2023-01-01T03:38:56;4.55;;;2.13;;
59830;SDS011;45711;50.108;13.712;2023-01-01T03:41:26;3.97;;;2.42;;
59830;SDS011;45711;50.108;13.712;2023-01-01T03:44:00;3.45;;;2.30;;
59830;SDS011;45711;50.108;13.712;2023-01-01T03:46:32;5.33;;;2.10;;
59830;SDS011;45711;50.108;13.712;2023-01-01T03:49:01;4.45;;;2.05;;
59830;SDS011;45711;50.108;13.712;2023-01-01T03:51:31;3.40;;;1.90;;
59830;SDS011;45711;50.108;13.712;2023-01-01T03:54:11;6.93;;;2.40;;
59830;SDS011;45711;50.108;13.712;2023-01-01T03:56:52;5.82;;;2.80;;
59830;SDS011;45711;50.108;13.712;2023-01-01T03:59:32;4.10;;;2.33;;
59830;SDS011;45711;50.108;13.712;2023-01-01T04:02:05;4.22;;;2.50;;
59830;SDS011;45711;50.108;13.712;2023-01-01T04:04:36;5.05;;;2.47;;
59830;SDS011;45711;50.108;13.712;2023-01-01T04:07:02;5.13;;;2.40;;
59830;SDS011;45711;50.108;13.712;2023-01-01T04:09:31;4.95;;;2.40;;
59830;SDS011;45711;50.108;13.712;2023-01-01T04:12:00;5.00;;;2.80;;
59830;SDS011;45711;50.108;13.712;2023-01-01T04:14:26;4.72;;;2.58;;
59830;SDS011;45711;50.108;13.712;2023-01-01T04:16:53;3.88;;;2.30;;
59830;SDS011;45711;50.108;13.712;2023-01-01T04:19:19;3.70;;;2.50;;
59830;SDS011;45711;50.108;13.712;2023-01-01T04:21:46;5.47;;;2.88;;
59830;SDS011;45711;50.108;13.712;2023-01-01T04:24:11;5.35;;;2.47;;
59830;SDS011;45711;50.108;13.712;2023-01-01T04:26:38;4.70;;;2.63;;
59830;SDS011;45711;50.108;13.712;2023-01-01T04:29:04;4.00;;;2.50;;
59830;SDS011;45711;50.108;13.712;2023-01-01T04:31:30;4.30;;;2.75;;
59830;SDS011;45711;50.108;13.712;2023-01-01T04:33:55;4.97;;;2.90;;
59830;SDS011;45711;50.108;13.712;2023-01-01T04:36:21;4.53;;;3.00;;
59830;SDS011;45711;50.108;13.712;2023-01-01T04:38:48;5.78;;;2.60;;
59830;SDS011;45711;50.108;13.712;2023-01-01T04:41:13;6.85;;;2.55;;
59830;SDS011;45711;50.108;13.712;2023-01-01T04:43:39;4.82;;;3.03;;
59830;SDS011;45711;50.108;13.712;2023-01-01T04:46:04;5.93;;;2.92;;
59830;SDS011;45711;50.108;13.712;2023-01-01T04:48:30;8.38;;;2.85;;
59830;SDS011;45711;50.108;13.712;2023-01-01T04:50:56;6.07;;;3.28;;
59830;SDS011;45711;50.108;13.712;2023-01-01T04:53:23;5.35;;;2.80;;
59830;SDS011;45711;50.108;13.712;2023-01-01T04:55:50;7.50;;;3.08;;
59830;SDS011;45711;50.108;13.712;2023-01-01T04:58:16;5.20;;;2.90;;
59830;SDS011;45711;50.108;13.712;2023-01-01T05:00:41;4.20;;;2.78;;
59830;SDS011;45711;50.108;13.712;2023-01-01T05:03:07;4.60;;;2.70;;
59830;SDS011;45711;50.108;13.712;2023-01-01T05:05:32;7.22;;;3.47;;
59830;SDS011;45711;50.108;13.712;2023-01-01T05:07:58;6.85;;;2.72;;
59830;SDS011;45711;50.108;13.712;2023-01-01T05:10:23;4.70;;;2.88;;
59830;SDS011;45711;50.108;13.712;2023-01-01T05:12:50;4.10;;;2.65;;
59830;SDS011;45711;50.108;13.712;2023-01-01T05:15:16;3.45;;;2.65;;
59830;SDS011;45711;50.108;13.712;2023-01-01T05:17:41;7.05;;;3.15;;
59830;SDS011;45711;50.108;13.712;2023-01-01T05:20:07;5.00;;;2.90;;
59830;SDS011;45711;50.108;13.712;2023-01-01T05:22:33;5.22;;;3.20;;
59830;SDS011;45711;50.108;13.712;2023-01-01T05:24:58;4.53;;;2.80;;
59830;SDS011;45711;50.108;13.712;2023-01-01T05:27:24;5.82;;;3.45;;
59830;SDS011;45711;50.108;13.712;2023-01-01T05:29:51;6.72;;;2.72;;
59830;SDS011;45711;50.108;13.712;2023-01-01T05:32:16;5.03;;;3.10;;
59830;SDS011;45711;50.108;13.712;2023-01-01T05:34:42;4.65;;;3.10;;
59830;SDS011;45711;50.108;13.712;2023-01-01T05:37:07;5.75;;;3.00;;
59830;SDS011;45711;50.108;13.712;2023-01-01T05:39:33;5.55;;;3.22;;
59830;SDS011;45711;50.108;13.712;2023-01-01T05:41:58;3.35;;;2.70;;
59830;SDS011;45711;50.108;13.712;2023-01-01T05:44:24;3.72;;;2.75;;
59830;SDS011;45711;50.108;13.712;2023-01-01T05:46:51;4.75;;;2.95;;
59830;SDS011;45711;50.108;13.712;2023-01-01T05:49:16;4.70;;;2.90;;
59830;SDS011;45711;50.108;13.712;2023-01-01T05:51:42;4.63;;;2.70;;
59830;SDS011;45711;50.108;13.712;2023-01-01T05:54:08;8.02;;;2.95;;
59830;SDS011;45711;50.108;13.712;2023-01-01T05:56:34;6.68;;;3.00;;
59830;SDS011;45711;50.108;13.712;2023-01-01T05:59:00;4.78;;;2.97;;
59830;SDS011;45711;50.108;13.712;2023-01-01T06:01:26;6.30;;;3.17;;
59830;SDS011;45711;50.108;13.712;2023-01-01T06:03:54;4.40;;;2.80;;
59830;SDS011;45711;50.108;13.712;2023-01-01T06:06:22;5.25;;;3.00;;
59830;SDS011;45711;50.108;13.712;2023-01-01T06:08:49;3.92;;;2.88;;
59830;SDS011;45711;50.108;13.712;2023-01-01T06:11:16;3.55;;;2.47;;
59830;SDS011;45711;50.108;13.712;2023-01-01T06:13:45;8.43;;;3.22;;
59830;SDS011;45711;50.108;13.712;2023-01-01T06:16:13;6.40;;;2.88;;
59830;SDS011;45711;50.108;13.712;2023-01-01T06:18:38;5.03;;;2.97;;
59830;SDS011;45711;50.108;13.712;2023-01-01T06:21:07;4.03;;;2.80;;
59830;SDS011;45711;50.108;13.712;2023-01-01T06:23:34;4.80;;;2.88;;
59830;SDS011;45711;50.108;13.712;2023-01-01T06:26:04;5.43;;;3.00;;
59830;SDS011;45711;50.108;13.712;2023-01-01T06:28:31;5.18;;;3.22;;
59830;SDS011;45711;50.108;13.712;2023-01-01T06:30:58;4.90;;;2.70;;
59830;SDS011;45711;50.108;13.712;2023-01-01T06:33:23;4.57;;;3.30;;
59830;SDS011;45711;50.108;13.712;2023-01-01T06:35:49;6.70;;;3.65;;
59830;SDS011;45711;50.108;13.712;2023-01-01T06:38:16;4.32;;;3.05;;
59830;SDS011;45711;50.108;13.712;2023-01-01T06:40:41;4.60;;;3.00;;
59830;SDS011;45711;50.108;13.712;2023-01-01T06:43:07;6.53;;;2.97;;
59830;SDS011;45711;50.108;13.712;2023-01-01T06:45:33;5.32;;;3.30;;
59830;SDS011;45711;50.108;13.712;2023-01-01T06:47:58;5.63;;;3.70;;
59830;SDS011;45711;50.108;13.712;2023-01-01T06:50:24;5.63;;;3.25;;
59830;SDS011;45711;50.108;13.712;2023-01-01T06:52:49;4.95;;;3.20;;
59830;SDS011;45711;50.108;13.712;2023-01-01T06:55:16;5.85;;;3.13;;
59830;SDS011;45711;50.108;13.712;2023-01-01T06:57:42;5.18;;;3.35;;
59830;SDS011;45711;50.108;13.712;2023-01-01T07:00:07;9.65;;;4.15;;
59830;SDS011;45711;50.108;13.712;2023-01-01T07:02:34;6.68;;;4.00;;
59830;SDS011;45711;50.108;13.712;2023-01-01T07:04:59;6.13;;;3.80;;
59830;SDS011;45711;50.108;13.712;2023-01-01T07:07:25;7.80;;;4.03;;
59830;SDS011;45711;50.108;13.712;2023-01-01T07:09:50;8.07;;;3.53;;
59830;SDS011;45711;50.108;13.712;2023-01-01T07:12:17;9.55;;;3.95;;
59830;SDS011;45711;50.108;13.712;2023-01-01T07:14:43;7.10;;;3.75;;
59830;SDS011;45711;50.108;13.712;2023-01-01T07:17:08;6.80;;;3.75;;
59830;SDS011;45711;50.108;13.712;2023-01-01T07:19:34;5.93;;;3.58;;
59830;SDS011;45711;50.108;13.712;2023-01-01T07:22:00;7.55;;;3.80;;
59830;SDS011;45711;50.108;13.712;2023-01-01T07:24:25;5.57;;;3.28;;
59830;SDS011;45711;50.108;13.712;2023-01-01T07:26:51;8.52;;;4.10;;
59830;SDS011;45711;50.108;13.712;2023-01-01T07:29:18;6.80;;;3.40;;
59830;SDS011;45711;50.108;13.712;2023-01-01T07:31:43;8.30;;;3.95;;
59830;SDS011;45711;50.108;13.712;2023-01-01T07:34:10;7.70;;;4.00;;
59830;SDS011;45711;50.108;13.712;2023-01-01T07:36:37;6.63;;;3.78;;
59830;SDS011;45711;50.108;13.712;2023-01-01T07:39:03;8.23;;;4.18;;
59830;SDS011;45711;50.108;13.712;2023-01-01T07:41:29;7.75;;;4.32;;
59830;SDS011;45711;50.108;13.712;2023-01-01T07:43:54;7.40;;;4.18;;
59830;SDS011;45711;50.108;13.712;2023-01-01T07:46:21;7.45;;;4.13;;
59830;SDS011;45711;50.108;13.712;2023-01-01T07:48:47;7.70;;;4.07;;
59830;SDS011;45711;50.108;13.712;2023-01-01T07:51:12;9.93;;;4.25;;
59830;SDS011;45711;50.108;13.712;2023-01-01T07:53:38;8.85;;;4.00;;
59830;SDS011;45711;50.108;13.712;2023-01-01T07:56:03;5.35;;;3.80;;
59830;SDS011;45711;50.108;13.712;2023-01-01T07:58:30;7.43;;;4.35;;
59830;SDS011;45711;50.108;13.712;2023-01-01T08:00:55;6.95;;;4.07;;
59830;SDS011;45711;50.108;13.712;2023-01-01T08:03:22;7.97;;;4.15;;
59830;SDS011;45711;50.108;13.712;2023-01-01T08:05:47;6.55;;;3.67;;
59830;SDS011;45711;50.108;13.712;2023-01-01T08:08:13;5.82;;;3.47;;
59830;SDS011;45711;50.108;13.712;2023-01-01T08:10:38;3.50;;;2.72;;
59830;SDS011;45711;50.108;13.712;2023-01-01T08:13:07;4.75;;;2.63;;
59830;SDS011;45711;50.108;13.712;2023-01-01T08:15:33;6.47;;;3.88;;
59830;SDS011;45711;50.108;13.712;2023-01-01T08:18:00;7.85;;;3.83;;
59830;SDS011;45711;50.108;13.712;2023-01-01T08:20:29;9.20;;;4.63;;
59830;SDS011;45711;50.108;13.712;2023-01-01T08:22:55;7.45;;;3.72;;
59830;SDS011;45711;50.108;13.712;2023-01-01T08:25:21;13.25;;;4.20;;
59830;SDS011;45711;50.108;13.712;2023-01-01T08:27:47;4.78;;;3.15;;
59830;SDS011;45711;50.108;13.712;2023-01-01T08:30:13;5.95;;;4.03;;
59830;SDS011;45711;50.108;13.712;2023-01-01T08:32:39;9.43;;;4.05;;
59830;SDS011;45711;50.108;13.712;2023-01-01T08:35:06;7.78;;;4.10;;
59830;SDS011;45711;50.108;13.712;2023-01-01T08:37:33;12.27;;;4.55;;
59830;SDS011;45711;50.108;13.712;2023-01-01T08:39:59;8.13;;;4.03;;
59830;SDS011;45711;50.108;13.712;2023-01-01T08:42:24;8.63;;;4.65;;
59830;SDS011;45711;50.108;13.712;2023-01-01T08:44:50;7.03;;;3.47;;
59830;SDS011;45711;50.108;13.712;2023-01-01T08:47:16;7.63;;;4.35;;
59830;SDS011;45711;50.108;13.712;2023-01-01T08:49:42;11.18;;;4.03;;
59830;SDS011;45711;50.108;13.712;2023-01-01T08:52:08;9.10;;;4.65;;
59830;SDS011;45711;50.108;13.712;2023-01-01T08:54:35;8.57;;;4.45;;
59830;SDS011;45711;50.108;13.712;2023-01-01T08:57:00;5.65;;;3.40;;
59830;SDS011;45711;50.108;13.712;2023-01-01T08:59:26;5.65;;;3.15;;
59830;SDS011;45711;50.108;13.712;2023-01-01T09:01:51;9.45;;;4.25;;
59830;SDS011;45711;50.108;13.712;2023-01-01T09:04:17;7.47;;;3.60;;
59830;SDS011;45711;50.108;13.712;2023-01-01T09:06:43;7.70;;;3.78;;
59830;SDS011;45711;50.108;13.712;2023-01-01T09:09:08;7.95;;;4.10;;
59830;SDS011;45711;50.108;13.712;2023-01-01T09:11:35;7.65;;;4.20;;
59830;SDS011;45711;50.108;13.712;2023-01-01T09:14:01;7.38;;;4.35;;
59830;SDS011;45711;50.108;13.712;2023-01-01T09:16:26;8.65;;;4.88;;
59830;SDS011;45711;50.108;13.712;2023-01-01T09:18:52;8.23;;;3.75;;
59830;SDS011;45711;50.108;13.712;2023-01-01T09:21:17;7.97;;;5.00;;
59830;SDS011;45711;50.108;13.712;2023-01-01T09:23:43;8.52;;;4.07;;
59830;SDS011;45711;50.108;13.712;2023-01-01T09:26:09;8.68;;;4.25;;
59830;SDS011;45711;50.108;13.712;2023-01-01T09:28:36;7.90;;;4.47;;
59830;SDS011;45711;50.108;13.712;2023-01-01T09:31:02;5.82;;;4.15;;
59830;SDS011;45711;50.108;13.712;2023-01-01T09:33:30;10.68;;;4.75;;
59830;SDS011;45711;50.108;13.712;2023-01-01T09:36:09;9.10;;;5.18;;
59830;SDS011;45711;50.108;13.712;2023-01-01T09:38:36;6.68;;;4.07;;
59830;SDS011;45711;50.108;13.712;2023-01-01T09:41:03;8.55;;;5.30;;
59830;SDS011;45711;50.108;13.712;2023-01-01T09:43:44;7.05;;;4.40;;
59830;SDS011;45711;50.108;13.712;2023-01-01T09:46:17;8.73;;;4.53;;
59830;SDS011;45711;50.108;13.712;2023-01-01T09:48:44;6.78;;;3.80;;
59830;SDS011;45711;50.108;13.712;2023-01-01T09:51:16;8.43;;;4.70;;
59830;SDS011;45711;50.108;13.712;2023-01-01T09:53:44;8.23;;;5.15;;
59830;SDS011;45711;50.108;13.712;2023-01-01T09:56:16;15.27;;;5.50;;
59830;SDS011;45711;50.108;13.712;2023-01-01T09:58:47;8.13;;;4.68;;
59830;SDS011;45711;50.108;13.712;2023-01-01T10:01:14;9.80;;;5.30;;
59830;SDS011;45711;50.108;13.712;2023-01-01T10:03:50;8.93;;;5.00;;
59830;SDS011;45711;50.108;13.712;2023-01-01T10:06:21;10.15;;;5.25;;
59830;SDS011;45711;50.108;13.712;2023-01-01T10:08:58;9.63;;;5.40;;
59830;SDS011;45711;50.108;13.712;2023-01-01T10:11:35;11.23;;;4.97;;
59830;SDS011;45711;50.108;13.712;2023-01-01T10:14:14;7.35;;;4.55;;
59830;SDS011;45711;50.108;13.712;2023-01-01T10:16:47;11.15;;;5.20;;
59830;SDS011;45711;50.108;13.712;2023-01-01T10:19:19;9.43;;;5.40;;
59830;SDS011;45711;50.108;13.712;2023-01-01T10:21:49;10.73;;;4.90;;
59830;SDS011;45711;50.108;13.712;2023-01-01T10:24:24;10.98;;;5.88;;
59830;SDS011;45711;50.108;13.712;2023-01-01T10:26:57;10.98;;;5.47;;
59830;SDS011;45711;50.108;13.712;2023-01-01T10:29:28;13.13;;;6.10;;
59830;SDS011;45711;50.108;13.712;2023-01-01T10:31:59;10.30;;;5.85;;
59830;SDS011;45711;50.108;13.712;2023-01-01T10:34:38;12.13;;;5.57;;
59830;SDS011;45711;50.108;13.712;2023-01-01T10:37:04;10.18;;;5.75;;
59830;SDS011;45711;50.108;13.712;2023-01-01T10:39:30;13.38;;;5.93;;
59830;SDS011;45711;50.108;13.712;2023-01-01T10:41:56;9.98;;;6.10;;
59830;SDS011;45711;50.108;13.712;2023-01-01T10:44:27;12.00;;;5.90;;
59830;SDS011;45711;50.108;13.712;2023-01-01T10:46:57;8.88;;;5.32;;
59830;SDS011;45711;50.108;13.712;2023-01-01T10:49:25;10.60;;;5.82;;
59830;SDS011;45711;50.108;13.712;2023-01-01T10:51:51;10.13;;;5.50;;
59830;SDS011;45711;50.108;13.712;2023-01-01T10:54:30;12.60;;;5.68;;
59830;SDS011;45711;50.108;13.712;2023-01-01T10:57:02;9.25;;;5.80;;
59830;SDS011;45711;50.108;13.712;2023-01-01T10:59:40;11.80;;;5.97;;
59830;SDS011;45711;50.108;13.712;2023-01-01T11:02:17;8.30;;;5.20;;
59830;SDS011;45711;50.108;13.712;2023-01-01T11:04:45;12.50;;;5.95;;
59830;SDS011;45711;50.108;13.712;2023-01-01T11:07:19;9.95;;;6.22;;
59830;SDS011;45711;50.108;13.712;2023-01-01T11:09:51;10.48;;;5.68;;
59830;SDS011;45711;50.108;13.712;2023-01-01T11:12:23;11.52;;;6.40;;
59830;SDS011;45711;50.108;13.712;2023-01-01T11:14:55;12.95;;;6.00;;
59830;SDS011;45711;50.108;13.712;2023-01-01T11:17:23;13.43;;;6.13;;
59830;SDS011;45711;50.108;13.712;2023-01-01T11:19:50;8.90;;;5.20;;
59830;SDS011;45711;50.108;13.712;2023-01-01T11:25:00;10.15;;;5.82;;
59830;SDS011;45711;50.108;13.712;2023-01-01T11:27:27;9.85;;;5.65;;
59830;SDS011;45711;50.108;13.712;2023-01-01T11:29:54;12.38;;;6.68;;
59830;SDS011;45711;50.108;13.712;2023-01-01T11:32:43;12.10;;;5.55;;
59830;SDS011;45711;50.108;13.712;2023-01-01T11:35:13;10.27;;;5.78;;
59830;SDS011;45711;50.108;13.712;2023-01-01T11:37:41;9.02;;;5.05;;
59830;SDS011;45711;50.108;13.712;2023-01-01T11:40:14;16.52;;;6.13;;
59830;SDS011;45711;50.108;13.712;2023-01-01T11:42:44;14.23;;;5.75;;
59830;SDS011;45711;50.108;13.712;2023-01-01T11:45:15;12.35;;;5.90;;
59830;SDS011;45711;50.108;13.712;2023-01-01T11:47:46;11.48;;;5.50;;
59830;SDS011;45711;50.108;13.712;2023-01-01T11:50:18;9.13;;;5.70;;
59830;SDS011;45711;50.108;13.712;2023-01-01T11:52:49;8.10;;;4.80;;
59830;SDS011;45711;50.108;13.712;2023-01-01T11:55:18;13.23;;;5.80;;
59830;SDS011;45711;50.108;13.712;2023-01-01T11:57:50;9.23;;;5.63;;
59830;SDS011;45711;50.108;13.712;2023-01-01T12:00:22;12.23;;;6.30;;
59830;SDS011;45711;50.108;13.712;2023-01-01T12:02:49;8.90;;;5.25;;
59830;SDS011;45711;50.108;13.712;2023-01-01T12:07:49;11.02;;;5.82;;
59830;SDS011;45711;50.108;13.712;2023-01-01T12:10:17;9.73;;;5.07;;
59830;SDS011;45711;50.108;13.712;2023-01-01T12:12:48;9.93;;;5.32;;
59830;SDS011;45711;50.108;13.712;2023-01-01T12:15:17;10.95;;;5.47;;
59830;SDS011;45711;50.108;13.712;2023-01-01T12:17:52;11.13;;;5.40;;
59830;SDS011;45711;50.108;13.712;2023-01-01T12:20:26;13.18;;;5.60;;
59830;SDS011;45711;50.108;13.712;2023-01-01T12:22:55;11.07;;;6.22;;
59830;SDS011;45711;50.108;13.712;2023-01-01T12:25:23;10.52;;;4.95;;
59830;SDS011;45711;50.108;13.712;2023-01-01T12:27:56;8.05;;;4.85;;
59830;SDS011;45711;50.108;13.712;2023-01-01T12:30:35;9.68;;;5.30;;
59830;SDS011;45711;50.108;13.712;2023-01-01T12:33:26;10.88;;;5.53;;
59830;SDS011;45711;50.108;13.712;2023-01-01T12:38:37;11.10;;;5.00;;
59830;SDS011;45711;50.108;13.712;2023-01-01T12:41:27;11.15;;;4.68;;
59830;SDS011;45711;50.108;13.712;2023-01-01T12:44:03;10.10;;;5.40;;
59830;SDS011;45711;50.108;13.712;2023-01-01T12:46:43;9.95;;;4.90;;
59830;SDS011;45711;50.108;13.712;2023-01-01T12:52:06;12.35;;;4.70;;
59830;SDS011;45711;50.108;13.712;2023-01-01T12:54:52;12.45;;;4.75;;
59830;SDS011;45711;50.108;13.712;2023-01-01T12:57:45;9.88;;;5.10;;
59830;SDS011;45711;50.108;13.712;2023-01-01T13:00:16;7.78;;;4.53;;
59830;SDS011;45711;50.108;13.712;2023-01-01T13:02:45;8.48;;;4.43;;
59830;SDS011;45711;50.108;13.712;2023-01-01T13:05:16;11.57;;;4.63;;
59830;SDS011;45711;50.108;13.712;2023-01-01T13:07:47;7.72;;;4.25;;
59830;SDS011;45711;50.108;13.712;2023-01-01T13:10:21;9.45;;;4.20;;
59830;SDS011;45711;50.108;13.712;2023-01-01T13:12:50;7.60;;;4.57;;
59830;SDS011;45711;50.108;13.712;2023-01-01T13:18:16;7.38;;;3.95;;
59830;SDS011;45711;50.108;13.712;2023-01-01T13:20:53;6.25;;;4.57;;
59830;SDS011;45711;50.108;13.712;2023-01-01T13:32:07;16.48;;;9.52;;
59830;SDS011;45711;50.108;13.712;2023-01-01T13:34:39;17.77;;;9.45;;
59830;SDS011;45711;50.108;13.712;2023-01-01T13:43:19;13.65;;;8.50;;
59830;SDS011;45711;50.108;13.712;2023-01-01T13:45:51;17.52;;;9.48;;
59830;SDS011;45711;50.108;13.712;2023-01-01T13:48:24;8.60;;;4.30;;
59830;SDS011;45711;50.108;13.712;2023-01-01T13:51:11;8.35;;;4.65;;
59830;SDS011;45711;50.108;13.712;2023-01-01T13:54:05;12.15;;;6.50;;
59830;SDS011;45711;50.108;13.712;2023-01-01T13:56:46;12.18;;;6.93;;
59830;SDS011;45711;50.108;13.712;2023-01-01T14:02:20;9.85;;;5.82;;
59830;SDS011;45711;50.108;13.712;2023-01-01T14:04:48;15.70;;;4.60;;
59830;SDS011;45711;50.108;13.712;2023-01-01T14:07:20;10.00;;;5.47;;
59830;SDS011;45711;50.108;13.712;2023-01-01T14:10:11;15.68;;;4.15;;
59830;SDS011;45711;50.108;13.712;2023-01-01T14:12:40;11.68;;;5.25;;
59830;SDS011;45711;50.108;13.712;2023-01-01T14:15:13;10.43;;;6.40;;
59830;SDS011;45711;50.108;13.712;2023-01-01T14:17:39;10.48;;;6.28;;
59830;SDS011;45711;50.108;13.712;2023-01-01T14:20:06;12.75;;;6.50;;
59830;SDS011;45711;50.108;13.712;2023-01-01T14:22:33;12.90;;;6.20;;
59830;SDS011;45711;50.108;13.712;2023-01-01T14:24:58;12.77;;;4.80;;
59830;SDS011;45711;50.108;13.712;2023-01-01T14:27:25;9.93;;;5.65;;
59830;SDS011;45711;50.108;13.712;2023-01-01T14:29:53;10.85;;;5.68;;
59830;SDS011;45711;50.108;13.712;2023-01-01T14:32:20;11.32;;;5.88;;
59830;SDS011;45711;50.108;13.712;2023-01-01T14:34:56;13.02;;;5.28;;
59830;SDS011;45711;50.108;13.712;2023-01-01T14:37:23;9.98;;;5.22;;
59830;SDS011;45711;50.108;13.712;2023-01-01T14:40:04;15.88;;;4.97;;
59830;SDS011;45711;50.108;13.712;2023-01-01T14:42:42;12.50;;;5.40;;
59830;SDS011;45711;50.108;13.712;2023-01-01T14:45:12;11.55;;;5.65;;
59830;SDS011;45711;50.108;13.712;2023-01-01T14:47:40;11.63;;;5.47;;
59830;SDS011;45711;50.108;13.712;2023-01-01T14:50:10;14.40;;;4.88;;
59830;SDS011;45711;50.108;13.712;2023-01-01T14:52:40;11.10;;;5.10;;
59830;SDS011;45711;50.108;13.712;2023-01-01T14:55:06;16.50;;;5.60;;
59830;SDS011;45711;50.108;13.712;2023-01-01T14:57:39;16.60;;;5.50;;
59830;SDS011;45711;50.108;13.712;2023-01-01T15:00:19;10.80;;;6.03;;
59830;SDS011;45711;50.108;13.712;2023-01-01T15:02:46;11.38;;;5.53;;
59830;SDS011;45711;50.108;13.712;2023-01-01T15:05:19;13.10;;;5.95;;
59830;SDS011;45711;50.108;13.712;2023-01-01T15:07:54;11.48;;;5.40;;
59830;SDS011;45711;50.108;13.712;2023-01-01T15:10:21;11.20;;;5.40;;
59830;SDS011;45711;50.108;13.712;2023-01-01T15:12:47;15.45;;;5.80;;
59830;SDS011;45711;50.108;13.712;2023-01-01T15:18:05;10.27;;;6.10;;
59830;SDS011;45711;50.108;13.712;2023-01-01T15:20:31;11.32;;;5.28;;